createdAt,value
2022-08-05T00:02:52.274Z,99544.12
2022-08-05T00:06:05.365Z,99541.00
2022-08-05T00:09:19.447Z,99537.65
2022-08-05T00:12:22.995Z,99538.98
2022-08-05T00:15:57.582Z,99538.11
2022-08-05T00:18:50.223Z,99536.64
2022-08-05T00:21:55.854Z,99532.66
2022-08-05T00:24:58.727Z,99531.94
2022-08-05T00:28:01.704Z,99530.43
2022-08-05T00:31:07.620Z,99532.19
2022-08-05T00:34:54.217Z,99532.89
2022-08-05T00:37:35.640Z,99532.19
2022-08-05T00:40:56.979Z,99527.52
2022-08-05T00:44:00.726Z,99529.59
2022-08-05T00:47:05.880Z,99525.13
2022-08-05T00:50:09.973Z,99524.91
2022-08-05T00:53:45.178Z,99521.35
2022-08-05T00:56:39.983Z,99522.06
2022-08-05T00:59:54.825Z,99518.21
2022-08-05T01:02:59.817Z,99516.92
2022-08-05T01:06:05.451Z,99514.58
2022-08-05T01:09:08.658Z,99515.36
2022-08-05T01:12:18.227Z,99516.83
2022-08-05T01:15:36.021Z,99510.73
2022-08-05T01:18:43.439Z,99508.38
2022-08-05T01:22:24.246Z,99506.24
2022-08-05T01:26:02.582Z,99504.44
2022-08-05T01:29:23.135Z,99499.65
2022-08-05T01:32:30.465Z,99500.17
2022-08-05T01:35:52.193Z,99496.73
2022-08-05T01:39:00.171Z,99491.74
2022-08-05T01:42:12.087Z,99487.89
2022-08-05T01:45:18.949Z,99490.85
2022-08-05T01:48:24.174Z,99489.73
2022-08-05T01:51:30.367Z,99490.47
2022-08-05T01:54:46.080Z,99487.84
2022-08-05T01:58:11.778Z,99484.08
2022-08-05T02:01:21.482Z,99481.31
2022-08-05T02:04:30.506Z,99484.00
2022-08-05T02:07:35.170Z,99482.16
2022-08-05T02:10:49.243Z,99476.91
2022-08-05T02:14:01.424Z,99478.48
2022-08-05T02:17:08.537Z,99478.24
2022-08-05T02:20:26.456Z,99475.89
2022-08-05T02:23:38.715Z,99473.79
2022-08-05T02:26:56.822Z,99470.79
2022-08-05T02:30:01.626Z,99470.10
2022-08-05T02:33:07.668Z,99467.81
2022-08-05T02:36:15.653Z,99463.73
2022-08-05T02:39:20.563Z,99459.64
2022-08-05T02:42:27.736Z,99456.85
2022-08-05T02:45:52.095Z,99454.36
2022-08-05T02:48:58.041Z,99454.23
2022-08-05T02:52:04.727Z,99454.71
2022-08-05T02:55:10.850Z,99450.55
2022-08-05T02:58:17.364Z,99452.79
2022-08-05T03:01:24.435Z,99444.44
2022-08-05T03:04:28.963Z,99441.42
2022-08-05T03:07:59.392Z,99440.41
2022-08-05T03:11:41.212Z,99437.27
2022-08-05T03:14:18.542Z,99436.89
2022-08-05T03:17:22.587Z,99435.40
2022-08-05T03:20:27.241Z,99433.36
2022-08-05T03:23:30.506Z,99434.25
2022-08-05T03:26:34.285Z,99434.14
2022-08-05T03:29:44.577Z,99436.55
2022-08-05T03:33:05.582Z,99439.55
2022-08-05T03:36:12.150Z,99440.90
2022-08-05T03:39:20.122Z,99437.27
2022-08-05T03:42:32.871Z,99437.12
2022-08-05T03:45:57.372Z,99433.29
2022-08-05T03:49:02.125Z,99430.17
2022-08-05T03:52:37.936Z,99434.16
2022-08-05T03:56:09.480Z,99431.59
2022-08-05T03:59:06.831Z,99428.85
2022-08-05T04:02:14.973Z,99425.29
2022-08-05T04:05:23.150Z,99421.15
2022-08-05T04:08:34.939Z,99423.98
2022-08-05T04:11:47.103Z,99428.30
2022-08-05T04:14:51.513Z,99436.20
2022-08-05T04:17:59.933Z,99436.75
2022-08-05T04:21:04.354Z,99436.29
2022-08-05T04:24:09.079Z,99433.29
2022-08-05T04:27:15.235Z,99430.80
2022-08-05T04:30:18.389Z,99425.52
2022-08-05T04:34:18.639Z,99422.57
2022-08-05T04:36:45.541Z,99423.69
2022-08-05T04:39:52.742Z,99423.59
2022-08-05T04:42:55.965Z,99426.56
2022-08-05T04:45:58.835Z,99427.09
2022-08-05T04:49:01.810Z,99429.79
2022-08-05T04:52:05.907Z,99428.35
2022-08-05T04:55:14.506Z,99426.24
2022-08-05T04:58:21.556Z,99425.81
2022-08-05T05:02:06.044Z,99431.04
2022-08-05T05:04:50.553Z,99427.92
2022-08-05T05:08:01.489Z,99431.52
2022-08-05T05:11:05.491Z,99433.91
2022-08-05T05:14:08.757Z,99437.23
2022-08-05T05:17:23.723Z,99437.33
2022-08-05T05:20:28.253Z,99441.81
2022-08-05T05:23:39.198Z,99443.04
2022-08-05T05:26:56.477Z,99447.30
2022-08-05T05:30:03.917Z,99442.61
2022-08-05T05:33:14.046Z,99438.70
2022-08-05T05:36:19.621Z,99439.60
2022-08-05T05:39:22.847Z,99439.75
2022-08-05T05:42:26.798Z,99440.66
2022-08-05T05:45:30.697Z,99437.88
2022-08-05T05:48:34.695Z,99435.96
2022-08-05T05:51:49.603Z,99435.02
2022-08-05T05:54:53.770Z,99438.09
2022-08-05T05:57:56.757Z,99440.04
2022-08-05T06:01:12.790Z,99440.23
2022-08-05T06:04:18.414Z,99439.36
2022-08-05T06:07:41.593Z,99435.80
2022-08-05T06:10:49.230Z,99437.95
2022-08-05T06:13:56.349Z,99441.95
2022-08-05T06:17:01.974Z,99444.60
2022-08-05T06:20:05.867Z,99448.05
2022-08-05T06:23:21.834Z,99451.64
2022-08-05T06:26:25.087Z,99455.94
2022-08-05T06:29:46.373Z,99453.56
2022-08-05T06:32:51.536Z,99452.85
2022-08-05T06:36:07.469Z,99445.46
2022-08-05T06:39:13.263Z,99445.60
2022-08-05T06:42:17.333Z,99444.30
2022-08-05T06:45:44.885Z,99447.73
2022-08-05T06:48:55.368Z,99440.50
2022-08-05T06:52:03.514Z,99438.68
2022-08-05T06:55:07.760Z,99440.86
2022-08-05T06:58:29.694Z,99435.63
2022-08-05T07:01:33.629Z,99442.52
2022-08-05T07:04:36.984Z,99440.73
2022-08-05T07:07:43.247Z,99443.00
2022-08-05T07:10:53.379Z,99445.89
2022-08-05T07:14:20.518Z,99442.52
2022-08-05T07:17:59.255Z,99446.46
2022-08-05T07:20:57.334Z,99452.04
2022-08-05T07:24:01.131Z,99453.90
2022-08-05T07:27:04.717Z,99455.73
2022-08-05T07:30:27.436Z,99456.62
2022-08-05T07:33:37.033Z,99454.70
2022-08-05T07:36:40.540Z,99450.00
2022-08-05T07:40:26.170Z,99449.95
2022-08-05T07:43:20.156Z,99452.05
2022-08-05T07:46:29.478Z,99457.23
2022-08-05T07:49:33.888Z,99456.35
2022-08-05T07:52:47.184Z,99453.19
2022-08-05T07:56:06.210Z,99452.88
2022-08-05T07:59:13.595Z,99450.09
2022-08-05T08:02:18.066Z,99455.62
2022-08-05T08:05:21.386Z,99456.49
2022-08-05T08:08:24.671Z,99454.02
2022-08-05T08:11:47.044Z,99453.64
2022-08-05T08:14:51.509Z,99444.56
2022-08-05T08:17:55.171Z,99443.98
2022-08-05T08:21:09.739Z,99444.03
2022-08-05T08:24:20.565Z,99444.85
2022-08-05T08:27:47.877Z,99449.11
2022-08-05T08:30:54.445Z,99444.45
2022-08-05T08:33:58.336Z,99448.14
2022-08-05T08:37:02.258Z,99450.29
2022-08-05T08:40:15.862Z,99447.73
2022-08-05T08:45:20.279Z,99444.10
2022-08-05T08:46:44.965Z,99439.38
2022-08-05T08:50:22.251Z,99433.83
2022-08-05T08:53:17.060Z,99436.29
2022-08-05T08:56:22.217Z,99435.07
2022-08-05T08:59:27.587Z,99433.27
2022-08-05T09:02:37.847Z,99435.88
2022-08-05T09:06:08.901Z,99441.84
2022-08-05T09:09:05.998Z,99439.91
2022-08-05T09:12:20.659Z,99445.83
2022-08-05T09:15:30.986Z,99450.20
2022-08-05T09:18:40.080Z,99450.30
2022-08-05T09:22:23.205Z,99446.09
2022-08-05T09:25:13.824Z,99448.45
2022-08-05T09:28:31.876Z,99447.67
2022-08-05T09:32:40.125Z,99450.44
2022-08-05T09:35:00.955Z,99448.81
2022-08-05T09:38:16.513Z,99448.88
2022-08-05T09:41:21.639Z,99448.08
2022-08-05T09:44:56.019Z,99442.01
2022-08-05T09:47:59.308Z,99444.05
2022-08-05T09:51:15.202Z,99445.20
2022-08-05T09:54:31.723Z,99447.38
2022-08-05T09:57:49.360Z,99446.70
2022-08-05T10:01:02.158Z,99443.14
2022-08-05T10:04:19.528Z,99439.15
2022-08-05T10:08:34.893Z,99434.64
2022-08-05T10:11:18.313Z,99435.15
2022-08-05T10:14:32.340Z,99435.47
2022-08-05T10:17:37.641Z,99433.83
2022-08-05T10:20:44.374Z,99433.03
2022-08-05T10:23:59.467Z,99433.81
2022-08-05T10:27:04.354Z,99429.46
2022-08-05T10:31:20.710Z,99427.15
2022-08-05T10:33:36.155Z,99426.10
2022-08-05T10:36:41.951Z,99424.23
2022-08-05T10:39:58.913Z,99429.75
2022-08-05T10:43:31.030Z,99426.60
2022-08-05T10:46:55.791Z,99430.84
2022-08-05T10:50:33.009Z,99433.64
2022-08-05T10:54:28.162Z,99420.30
2022-08-05T10:57:31.984Z,99420.23
2022-08-05T11:00:42.160Z,99410.89
2022-08-05T11:04:00.579Z,99409.64
2022-08-05T11:07:12.300Z,99414.83
2022-08-05T11:10:29.230Z,99408.15
2022-08-05T11:13:57.538Z,99410.59
2022-08-05T11:17:58.883Z,99406.41
2022-08-05T11:21:06.517Z,99407.27
2022-08-05T11:24:30.875Z,99408.59
2022-08-05T11:27:51.491Z,99409.66
2022-08-05T11:31:06.223Z,99409.96
2022-08-05T11:34:09.785Z,99403.08
2022-08-05T11:38:30.517Z,99409.80
2022-08-05T11:41:35.621Z,99408.80
2022-08-05T11:44:53.174Z,99411.35
2022-08-05T11:47:58.737Z,99407.10
2022-08-05T11:51:03.581Z,99418.67
2022-08-05T11:54:06.984Z,99417.98
2022-08-05T11:57:24.427Z,99416.52
2022-08-05T12:00:31.562Z,99416.10
2022-08-05T12:03:43.149Z,99407.00
2022-08-05T12:07:03.416Z,99417.80
2022-08-05T12:10:09.637Z,99408.88
2022-08-05T12:13:27.771Z,99401.98
2022-08-05T12:16:46.385Z,99407.75
2022-08-05T12:20:16.695Z,99412.56
2022-08-05T12:23:18.630Z,99405.75
2022-08-05T12:26:21.913Z,99411.69
2022-08-05T12:29:38.758Z,99420.00
2022-08-05T12:32:51.502Z,99408.45
2022-08-05T12:35:56.354Z,99408.44
2022-08-05T12:39:06.899Z,99399.81
2022-08-05T12:42:17.403Z,99407.23
2022-08-05T12:45:22.934Z,99405.39
2022-08-05T12:48:45.963Z,99399.02
2022-08-05T12:52:10.178Z,99399.64
2022-08-05T12:55:22.528Z,99403.69
2022-08-05T12:58:49.663Z,99399.55
2022-08-05T13:02:19.962Z,99402.52
2022-08-05T13:05:25.719Z,99404.98
2022-08-05T13:08:41.014Z,99407.13
2022-08-05T13:12:50.699Z,99403.64
2022-08-05T13:15:56.442Z,99410.24
2022-08-05T13:19:01.988Z,99415.41
2022-08-05T13:22:05.399Z,99415.17
2022-08-05T13:25:52.093Z,99419.42
2022-08-05T13:29:37.643Z,99417.69
2022-08-05T13:34:24.755Z,99415.48
2022-08-05T13:41:13.841Z,99411.55
2022-08-05T13:44:19.318Z,99419.66
2022-08-05T13:47:35.530Z,99417.38
2022-08-05T13:50:40.102Z,99421.80
2022-08-05T13:53:47.764Z,99417.94
2022-08-05T13:56:51.999Z,99424.95
2022-08-05T13:59:57.199Z,99422.40
2022-08-05T14:03:02.827Z,99428.55
2022-08-05T14:06:25.329Z,99418.27
2022-08-05T14:10:19.085Z,99412.65
2022-08-05T14:13:32.368Z,99401.55
2022-08-05T14:16:37.696Z,99401.19
2022-08-05T14:19:55.301Z,99415.05
2022-08-05T14:23:00.480Z,99416.41
2022-08-05T14:26:04.937Z,99426.12
2022-08-05T14:29:15.971Z,99428.95
2022-08-05T14:32:27.742Z,99425.29
2022-08-05T14:35:49.980Z,99429.48
2022-08-05T14:38:54.386Z,99422.25
2022-08-05T14:42:19.314Z,99428.09
2022-08-05T14:45:29.329Z,99428.16
2022-08-05T14:48:36.388Z,99433.43
2022-08-05T14:51:42.413Z,99436.23
2022-08-05T14:54:52.693Z,99435.19
2022-08-05T14:57:57.745Z,99437.91
2022-08-05T15:01:00.864Z,99438.83
2022-08-05T15:04:07.320Z,99443.67
2022-08-05T15:08:10.662Z,99436.73
2022-08-05T15:10:37.410Z,99442.61
2022-08-05T15:13:45.788Z,99444.34
2022-08-05T15:16:49.911Z,99440.39
2022-08-05T15:19:58.230Z,99443.82
2022-08-05T15:23:05.785Z,99451.48
2022-08-05T15:26:12.054Z,99444.54
2022-08-05T15:29:30.086Z,99441.03
2022-08-05T15:33:00.646Z,99446.03
2022-08-05T15:36:06.139Z,99450.88
2022-08-05T15:40:59.775Z,99462.36
2022-08-05T15:42:55.681Z,99463.59
2022-08-05T15:46:03.503Z,99467.56
2022-08-05T15:49:10.055Z,99460.70
2022-08-05T15:52:29.009Z,99465.44
2022-08-05T15:56:04.239Z,99470.11
2022-08-05T15:58:55.921Z,99482.25
2022-08-05T16:01:59.601Z,99486.83
2022-08-05T16:05:05.190Z,99476.17
2022-08-05T16:08:08.311Z,99471.23
2022-08-05T16:11:12.003Z,99481.55
2022-08-05T16:14:17.740Z,99497.00
2022-08-05T16:17:23.163Z,99489.75
2022-08-05T16:20:28.598Z,99488.05
2022-08-05T16:23:53.758Z,99493.54
2022-08-05T16:27:00.586Z,99509.42
2022-08-05T16:30:04.743Z,99509.43
2022-08-05T16:33:08.728Z,99502.59
2022-08-05T16:36:11.910Z,99508.23
2022-08-05T16:39:15.513Z,99522.39
2022-08-05T16:42:24.115Z,99532.92
2022-08-05T16:46:05.101Z,99522.66
2022-08-05T16:48:55.699Z,99521.12
2022-08-05T16:51:59.057Z,99531.52
2022-08-05T16:55:04.252Z,99531.43
2022-08-05T16:58:08.568Z,99527.49
2022-08-05T17:01:12.379Z,99528.91
2022-08-05T17:04:15.399Z,99528.69
2022-08-05T17:07:43.685Z,99539.69
2022-08-05T17:10:42.621Z,99539.02
2022-08-05T17:13:47.951Z,99546.66
2022-08-05T17:16:53.331Z,99547.68
2022-08-05T17:19:57.273Z,99559.23
2022-08-05T17:23:00.352Z,99560.13
2022-08-05T17:26:03.376Z,99558.66
2022-08-05T17:29:09.958Z,99562.40
2022-08-05T17:32:17.193Z,99572.80
2022-08-05T17:35:21.109Z,99572.70
2022-08-05T17:38:24.425Z,99572.06
2022-08-05T17:42:17.835Z,99572.02
2022-08-05T17:44:52.675Z,99579.48
2022-08-05T17:47:56.383Z,99564.85
2022-08-05T17:51:00.060Z,99584.17
2022-08-05T17:54:04.459Z,99589.74
2022-08-05T17:57:07.429Z,99585.97
2022-08-05T18:00:15.490Z,99591.13
2022-08-05T18:06:42.496Z,99589.50
2022-08-05T18:10:00.447Z,99592.43
2022-08-05T18:13:12.492Z,99596.11
2022-08-05T18:16:20.263Z,99602.40
2022-08-05T18:19:26.035Z,99605.84
2022-08-05T18:22:46.177Z,99605.92
2022-08-05T18:25:57.823Z,99610.25
2022-08-05T18:29:03.190Z,99620.81
2022-08-05T18:32:06.637Z,99629.70
2022-08-05T18:35:17.757Z,99632.96
2022-08-05T18:38:26.658Z,99628.90
2022-08-05T18:41:57.288Z,99629.25
2022-08-05T18:45:08.299Z,99629.16
2022-08-05T18:48:17.559Z,99644.04
2022-08-05T18:52:05.106Z,99642.67
2022-08-05T18:55:16.206Z,99655.52
2022-08-05T18:58:28.874Z,99663.42
2022-08-05T19:01:48.169Z,99661.05
2022-08-05T19:06:06.388Z,99666.27
2022-08-05T19:08:31.505Z,99664.81
2022-08-05T19:11:59.180Z,99685.26
2022-08-05T19:15:25.014Z,99696.50
2022-08-05T19:18:35.859Z,99699.82
2022-08-05T19:21:42.631Z,99703.33
2022-08-05T19:24:54.509Z,99708.90
2022-08-05T19:27:59.978Z,99723.02
2022-08-05T19:31:06.739Z,99727.91
2022-08-05T19:34:11.372Z,99728.83
2022-08-05T19:37:18.900Z,99726.54
2022-08-05T19:40:26.315Z,99738.70
2022-08-05T19:44:07.072Z,99739.77
2022-08-05T19:47:04.539Z,99741.29
2022-08-05T19:50:20.646Z,99730.10
2022-08-05T19:54:04.634Z,99740.86
2022-08-05T19:57:09.522Z,99746.29
2022-08-05T20:00:14.767Z,99745.02
2022-08-05T20:03:18.073Z,99753.84
2022-08-05T20:06:29.523Z,99750.00
2022-08-05T20:09:53.521Z,99762.48
2022-08-05T20:12:59.905Z,99766.36
2022-08-05T20:16:06.847Z,99787.27
2022-08-05T20:19:12.605Z,99765.86
2022-08-05T20:22:20.526Z,99777.45
2022-08-05T20:25:33.734Z,99776.70
2022-08-05T20:28:44.900Z,99779.98
2022-08-05T20:31:57.673Z,99791.80
2022-08-05T20:35:05.490Z,99796.95
2022-08-05T20:38:20.072Z,99808.48
2022-08-05T20:41:44.564Z,99800.77
2022-08-05T20:44:48.474Z,99806.33
2022-08-05T20:47:51.431Z,99811.72
2022-08-05T20:50:54.975Z,99827.50
2022-08-05T20:54:01.265Z,99838.67
2022-08-05T20:57:04.646Z,99832.45
2022-08-05T21:00:40.325Z,99855.80
2022-08-05T21:03:34.702Z,99868.20
2022-08-05T21:06:45.109Z,99876.05
2022-08-05T21:09:53.517Z,99876.80
2022-08-05T21:13:08.790Z,99874.86
2022-08-05T21:16:14.320Z,99873.36
2022-08-05T21:19:17.361Z,99878.69
2022-08-05T21:22:23.883Z,99896.95
2022-08-05T21:25:33.674Z,99904.86
2022-08-05T21:28:36.999Z,99938.88
2022-08-05T21:31:41.956Z,99935.80
2022-08-05T21:34:44.891Z,99931.89
2022-08-05T21:38:07.733Z,99931.13
2022-08-05T21:41:12.083Z,99928.36
2022-08-05T21:44:18.983Z,99936.84
2022-08-05T21:47:55.029Z,99946.53
2022-08-05T21:50:54.453Z,99946.53
2022-08-05T21:53:59.525Z,99947.29
2022-08-05T21:57:30.255Z,99943.42
2022-08-05T22:00:30.272Z,99956.85
2022-08-05T22:03:52.601Z,99972.48
2022-08-05T22:06:57.325Z,99975.34
2022-08-05T22:10:00.533Z,99983.66
2022-08-05T22:14:05.247Z,99984.48
2022-08-05T22:16:50.762Z,99988.30
2022-08-05T22:19:57.512Z,99988.52
2022-08-05T22:24:01.155Z,100009.95
2022-08-05T22:27:24.747Z,100013.56
2022-08-05T22:30:55.893Z,100011.83
2022-08-05T22:34:01.088Z,100016.77
2022-08-05T22:37:04.962Z,100020.10
2022-08-05T22:40:34.970Z,100020.39
2022-08-05T22:43:38.551Z,100011.02
2022-08-05T22:46:42.455Z,100029.31
2022-08-05T22:50:19.892Z,100042.08
2022-08-05T22:53:15.971Z,100028.34
2022-08-05T22:56:20.321Z,100042.26
2022-08-05T22:59:46.009Z,100020.40
2022-08-05T23:02:53.902Z,100026.40
2022-08-05T23:05:57.082Z,100021.90
2022-08-05T23:09:26.888Z,100047.39
2022-08-05T23:12:24.630Z,100050.83
2022-08-05T23:15:35.196Z,100056.36
2022-08-05T23:18:39.461Z,100066.25
2022-08-05T23:21:48.480Z,100061.58
2022-08-05T23:24:52.362Z,100074.64
2022-08-05T23:28:00.190Z,100088.81
2022-08-05T23:31:17.344Z,100091.48
2022-08-05T23:34:24.390Z,100097.73
2022-08-05T23:37:34.272Z,100102.10
2022-08-05T23:40:39.665Z,100100.98
2022-08-05T23:44:04.779Z,100105.11
2022-08-05T23:47:14.474Z,100106.64
2022-08-05T23:50:20.033Z,100114.23
2022-08-05T23:53:23.481Z,100111.25
2022-08-05T23:56:31.853Z,100101.96
